Fort Peck, MT (59223)

11:27 PM MDT on October 01, 2014 (GMT -0600)
Sturgeon Bay | Change Station
CLOSE
Current Station
Personal Weather Station
Location: Fort Peck, MT
Elevation: 2287 ft
Nearby Weather Stations
Active Advisory: Lake Wind Advisory

Elev 2287 ft 47.99 °N, 106.50 °W | Updated 7 minutes ago

Mostly Cloudy
Mostly Cloudy
54.7 °F
Feels Like 54.7 °F
N
6.0
Wind Variable Wind from SSW
Gusts 10.7 mph

Today
High -- | Low -- °F
--% Chance of Precip.
Yesterday
High -- | Low -- °F
Precip. -- in
7:05 AM 6:44 PM
First Quarter, 55% visible
Pressure 29.87 in
Visibility 10.0 miles
Clouds Few 7000 ft
Scattered Clouds 8000 ft
Overcast 11000 ft
Dew Point 46 °F
Humidity 71%
Rainfall 0.00 in
Snow Depth 0 in , 0 in , 1 in
UV 0 out of 12
Pollen .90 out of 12
Air Quality Not available.
Flu Activity Not available.
METAR KGGW 020453Z AUTO 15006KT 10SM FEW070 SCT080 OVC110 07/03 A2984 RMK AO2 RAB09E27 SLP115 P0000 T00670033

More Conditions Fewer Conditions

Pressure 29.87 in
Visibility 10.0 miles
Clouds Few 7000 ft
Scattered Clouds 8000 ft
Overcast 11000 ft
Dew Point 46 °F
Humidity 71%
Rainfall 0.00 in
Snow Depth 0 in , 0 in , 1 in
UV 0 out of 12
Pollen .90 out of 12
Air Quality Not available.
Flu Activity Not available.
METAR KGGW 020453Z AUTO 15006KT 10SM FEW070 SCT080 OVC110 07/03 A2984 RMK AO2 RAB09E27 SLP115 P0000 T00670033

More Conditions Fewer Conditions

10-Day Weather Forecast

Almanac

Astronomy

Oct. 01, 2014 Rise Set
Actual Time 7:05 AM MDT 6:44 PM MDT
Civil Twilight 6:34 AM MDT 7:15 PM MDT
Nautical Twilight 5:58 AM MDT 7:51 PM MDT
Astronomical Twilight 5:21 AM MDT 8:28 PM MDT
Moon 2:27 PM MDT (10/1) No Moon Set
Length of Visible Light 12h 41m
Length of Day
11h 39m
Tomorrow will be 3m 27s shorter.
First Quarter, 55% of the Moon is Illuminated
Oct 2
First Quarter
Oct 8
Full
Oct 15
Last Quarter
Oct 23
New
Oct 30
First Quarter

Yesterday's Extremes

State Highs State Lows

Community

WunderPhotos

Upload Photos

1,758,195 photos uploaded!

Nearby

Snow Depth

Station Depth Elevation
Lick Creek 0 in 6860 ft
Stringer Creek 0 in 6550 ft
Brackett Creek 1 in 7320 ft
Lemhi Ridge 0 in 8100 ft
Spur Park 0 in 8100 ft

Earthquake Activity

City Distance Mag. Time & Date
No recent earthquake activity has been reported nearby.
Minimum magnitude displayed is 2.5.

Coastal Water Temperatures

Place Temperature
No Stations Reporting

Nearby Weather Stations